Time;durP1;ratioP1;P1;durP2;ratioP2;P2;SDS_P1;SDS_P2;PMS_P1;PMS_P2;Temp;Humidity;BMP_temperature;BMP_pressure;BME280_temperature;BME280_humidity;BME280_pressure;Samples;Min_cycle;Max_cycle;Signal;HPM_P1;HPM_P2
2023/02/26 00:00:10;;;;;;;3.07;2.40;;;0.00;99.20;;;;;;5051608;28;20202;-84
2023/02/26 00:02:38;;;;;;;2.53;1.87;;;0.00;99.50;;;;;;5051298;28;20221;-86
2023/02/26 00:05:06;;;;;;;3.00;2.20;;;0.00;99.80;;;;;;5050588;28;20198;-85
2023/02/26 00:07:35;;;;;;;2.83;2.10;;;0.00;99.90;;;;;;5056376;28;20773;-87
2023/02/26 00:10:02;;;;;;;3.07;2.33;;;0.00;99.90;;;;;;5053482;28;20197;-87
2023/02/26 00:12:29;;;;;;;2.50;2.27;;;0.00;99.90;;;;;;5031397;28;20201;-85
2023/02/26 00:14:57;;;;;;;2.60;2.40;;;0.00;99.90;;;;;;5055148;28;20205;-87
2023/02/26 00:17:34;;;;;;;4.60;2.70;;;0.10;99.90;;;;;;5061985;28;20200;-87
2023/02/26 00:20:02;;;;;;;5.00;3.20;;;0.10;99.90;;;;;;5057084;28;20263;-85
2023/02/26 00:22:30;;;;;;;4.17;2.73;;;0.10;99.80;;;;;;5055797;28;20226;-89
2023/02/26 00:24:58;;;;;;;3.53;2.67;;;0.10;99.60;;;;;;5053602;28;20300;-84
2023/02/26 00:27:25;;;;;;;2.73;2.40;;;0.00;99.80;;;;;;5052485;28;20200;-88
2023/02/26 00:29:53;;;;;;;4.03;3.53;;;0.10;99.20;;;;;;5054326;28;20224;-87
2023/02/26 00:32:20;;;;;;;4.27;2.40;;;0.10;99.20;;;;;;5054594;28;20230;-87
2023/02/26 00:34:48;;;;;;;3.63;2.67;;;0.10;99.20;;;;;;5056209;28;20202;-87
2023/02/26 00:37:28;;;;;;;3.83;2.97;;;0.00;99.20;;;;;;5048319;28;20198;-87
2023/02/26 00:40:07;;;;;;;3.60;2.47;;;0.10;99.50;;;;;;5054691;28;20229;-87
2023/02/26 00:42:34;;;;;;;4.83;3.07;;;0.20;99.50;;;;;;5058086;28;20291;-87
2023/02/26 00:45:02;;;;;;;3.17;2.50;;;0.20;99.30;;;;;;5050386;28;20198;-87
2023/02/26 00:47:33;;;;;;;3.30;2.80;;;0.30;99.20;;;;;;5059600;28;20638;-87
2023/02/26 00:50:17;;;;;;;3.20;2.40;;;0.40;99.30;;;;;;5050760;28;20587;-86
2023/02/26 00:52:53;;;;;;;3.53;2.93;;;0.30;98.40;;;;;;5031561;28;20213;-87
2023/02/26 00:55:22;;;;;;;3.90;2.87;;;0.30;98.90;;;;;;5057943;28;20192;-86
2023/02/26 00:57:48;;;;;;;3.70;3.20;;;0.40;99.20;;;;;;5054536;28;20198;-87
2023/02/26 01:00:16;;;;;;;3.07;2.77;;;0.30;98.60;;;;;;5059231;28;20209;-84
2023/02/26 01:02:44;;;;;;;2.70;2.50;;;0.20;98.40;;;;;;5036780;28;20205;-84
2023/02/26 01:05:11;;;;;;;2.17;1.97;;;0.20;98.10;;;;;;5054699;28;20577;-87
2023/02/26 01:07:43;;;;;;;3.07;2.33;;;0.10;98.10;;;;;;5045440;28;20208;-87
2023/02/26 01:10:11;;;;;;;3.50;2.10;;;0.00;98.10;;;;;;5050654;28;20205;-84
2023/02/26 01:12:43;;;;;;;3.43;2.70;;;0.00;98.70;;;;;;5047895;28;20205;-86
2023/02/26 01:15:11;;;;;;;3.17;2.60;;;0.00;98.80;;;;;;5045830;28;20535;-87
2023/02/26 01:17:44;;;;;;;3.20;2.90;;;0.00;99.10;;;;;;5047023;28;20205;-88
2023/02/26 01:20:17;;;;;;;3.47;2.90;;;0.20;99.00;;;;;;5046735;28;20226;-85
2023/02/26 01:22:51;;;;;;;3.57;2.60;;;0.20;98.50;;;;;;5032987;28;20221;-85
2023/02/26 01:25:23;;;;;;;2.87;2.40;;;0.20;98.00;;;;;;5050753;28;20656;-85
2023/02/26 01:27:52;;;;;;;2.63;2.40;;;0.10;97.70;;;;;;5056291;28;20236;-83
2023/02/26 01:30:20;;;;;;;3.73;2.50;;;0.10;97.80;;;;;;5048604;28;20201;-86
2023/02/26 01:32:53;;;;;;;2.20;1.83;;;-0.10;97.50;;;;;;5047787;28;20591;-86
2023/02/26 01:35:32;;;;;;;3.07;2.10;;;-0.20;97.60;;;;;;5028376;28;20705;-87
2023/02/26 01:38:03;;;;;;;2.73;2.20;;;-0.30;97.80;;;;;;5051346;28;20201;-87
2023/02/26 01:41:02;;;;;;;2.27;2.07;;;-0.30;98.30;;;;;;5055131;28;20194;-86
2023/02/26 01:43:38;;;;;;;2.90;2.03;;;-0.20;97.80;;;;;;5049072;28;20206;-86
2023/02/26 01:46:14;;;;;;;2.77;2.10;;;-0.20;97.60;;;;;;5045638;28;20209;-85
2023/02/26 01:48:49;;;;;;;2.60;1.97;;;-0.20;97.80;;;;;;5031435;28;20209;-87
2023/02/26 01:51:16;;;;;;;2.10;2.00;;;-0.30;97.60;;;;;;5022867;28;20204;-86
2023/02/26 01:53:43;;;;;;;2.90;2.33;;;-0.30;98.30;;;;;;5028742;28;20251;-86
2023/02/26 01:56:16;;;;;;;3.80;2.10;;;-0.40;98.20;;;;;;5051597;28;20221;-86
2023/02/26 01:58:46;;;;;;;2.33;2.10;;;-0.40;98.20;;;;;;5045322;28;20316;-88
2023/02/26 02:01:13;;;;;;;2.70;2.20;;;-0.40;98.20;;;;;;5009737;28;20202;-86
2023/02/26 02:03:41;;;;;;;3.60;2.40;;;-0.40;98.00;;;;;;5049186;28;20205;-87
2023/02/26 02:06:11;;;;;;;3.63;2.37;;;-0.40;98.20;;;;;;5024433;28;20874;-86
2023/02/26 02:08:38;;;;;;;2.40;2.20;;;-0.40;98.40;;;;;;5032407;28;20206;-88
2023/02/26 02:11:08;;;;;;;3.27;2.47;;;-0.30;98.30;;;;;;5054159;28;20208;-86
2023/02/26 02:13:49;;;;;;;3.80;2.47;;;-0.30;98.40;;;;;;5031852;28;20220;-86
2023/02/26 02:16:24;;;;;;;2.50;2.27;;;-0.40;98.20;;;;;;5024115;28;20232;-86
2023/02/26 02:18:59;;;;;;;3.47;2.67;;;-0.40;98.50;;;;;;5054010;28;20231;-87
2023/02/26 02:21:47;;;;;;;3.10;2.57;;;-0.40;98.40;;;;;;5046932;28;20680;-86
2023/02/26 02:24:21;;;;;;;2.93;2.40;;;-0.40;99.10;;;;;;5033458;28;20243;-86
2023/02/26 02:26:58;;;;;;;2.80;2.30;;;-0.40;99.10;;;;;;5047066;28;20194;-86
2023/02/26 02:29:53;;;;;;;3.17;2.40;;;-0.40;98.40;;;;;;5028049;28;20192;-86
2023/02/26 02:32:25;;;;;;;2.53;2.33;;;-0.40;98.40;;;;;;5040725;28;20203;-86
2023/02/26 02:34:57;;;;;;;2.63;2.00;;;-0.50;97.70;;;;;;5046077;28;20212;-86
2023/02/26 02:37:29;;;;;;;2.83;2.40;;;-0.50;97.70;;;;;;5043654;28;20195;-85
2023/02/26 02:40:01;;;;;;;2.10;1.70;;;-0.40;98.10;;;;;;5047784;28;20240;-86
2023/02/26 02:42:32;;;;;;;2.20;2.00;;;-0.40;97.40;;;;;;5046364;28;20194;-86
2023/02/26 02:45:05;;;;;;;3.77;1.90;;;-0.30;96.90;;;;;;5049825;28;20279;-85
2023/02/26 02:47:36;;;;;;;1.93;1.80;;;-0.40;96.50;;;;;;5046868;28;20201;-85
2023/02/26 02:50:13;;;;;;;2.83;1.90;;;-0.40;96.50;;;;;;5056733;28;20197;-85
2023/02/26 02:52:44;;;;;;;2.00;1.73;;;-0.40;96.40;;;;;;5045366;28;20197;-86
2023/02/26 02:55:17;;;;;;;2.07;1.60;;;-0.40;95.30;;;;;;5051433;28;20205;-85
2023/02/26 02:57:48;;;;;;;2.20;1.60;;;-0.40;95.40;;;;;;5041900;28;20198;-86
2023/02/26 03:00:18;;;;;;;2.97;1.70;;;-0.50;96.00;;;;;;5028456;28;20221;-87
2023/02/26 03:02:54;;;;;;;7.67;1.60;;;-0.50;95.80;;;;;;5051256;28;20201;-85
2023/02/26 03:05:21;;;;;;;2.47;1.50;;;-0.70;96.20;;;;;;5021504;28;20252;-85
2023/02/26 03:07:51;;;;;;;2.73;1.50;;;-0.60;96.50;;;;;;5032365;28;20646;-86
2023/02/26 03:10:19;;;;;;;3.77;1.63;;;-0.70;96.50;;;;;;5045199;28;20213;-86
2023/02/26 03:12:45;;;;;;;5.80;2.07;;;-0.60;96.50;;;;;;5048779;28;20212;-86
2023/02/26 03:15:14;;;;;;;3.60;1.90;;;-0.70;96.50;;;;;;5047625;28;20202;-86
2023/02/26 03:17:51;;;;;;;4.03;1.83;;;-0.70;96.90;;;;;;5050729;28;20211;-85
2023/02/26 03:20:25;;;;;;;2.57;1.50;;;-0.70;96.80;;;;;;5035531;28;20222;-86
2023/02/26 03:23:03;;;;;;;5.07;1.90;;;-0.70;96.70;;;;;;5049562;28;20233;-86
2023/02/26 03:25:36;;;;;;;2.77;1.70;;;-0.70;96.90;;;;;;5056836;28;20205;-86
2023/02/26 03:28:09;;;;;;;2.83;1.80;;;-0.70;97.10;;;;;;5052102;28;20204;-85
2023/02/26 03:30:40;;;;;;;3.60;1.70;;;-0.60;97.30;;;;;;5053386;28;20202;-86
2023/02/26 03:33:14;;;;;;;2.50;2.10;;;-0.70;96.30;;;;;;5043879;28;20209;-86
2023/02/26 03:35:47;;;;;;;3.17;1.73;;;-0.70;96.50;;;;;;5042255;28;20201;-86
2023/02/26 03:38:20;;;;;;;2.17;1.80;;;-0.80;96.40;;;;;;5046467;28;20205;-85
2023/02/26 03:40:51;;;;;;;2.77;1.70;;;-0.70;96.50;;;;;;5050994;28;20228;-86
2023/02/26 03:43:23;;;;;;;3.60;1.70;;;-0.70;96.50;;;;;;5034135;28;20201;-85
2023/02/26 03:45:54;;;;;;;3.37;2.07;;;-0.80;96.50;;;;;;5049061;28;20208;-85
2023/02/26 03:48:27;;;;;;;1.90;1.60;;;-0.90;96.20;;;;;;5047276;28;20221;-85
2023/02/26 03:50:59;;;;;;;2.80;1.77;;;-0.90;96.10;;;;;;5055806;28;20702;-87
2023/02/26 03:53:30;;;;;;;1.67;1.57;;;-0.90;95.80;;;;;;5051703;28;20207;-86
2023/02/26 03:56:02;;;;;;;3.97;1.90;;;-1.00;96.40;;;;;;5054796;28;20201;-86
2023/02/26 03:58:29;;;;;;;5.03;2.00;;;-1.00;96.40;;;;;;5049755;28;20212;-86
2023/02/26 04:01:02;;;;;;;3.13;1.63;;;-0.90;96.40;;;;;;5036797;28;20232;-86
2023/02/26 04:03:39;;;;;;;5.33;2.07;;;-1.10;96.10;;;;;;5036578;28;20198;-86
2023/02/26 04:06:06;;;;;;;2.37;2.00;;;-1.20;96.40;;;;;;5053293;28;20194;-86
2023/02/26 04:08:33;;;;;;;2.60;1.90;;;-1.20;96.60;;;;;;5039763;28;20205;-85
2023/02/26 04:11:06;;;;;;;2.67;1.97;;;-1.10;97.00;;;;;;5051778;28;20226;-86
2023/02/26 04:13:33;;;;;;;3.50;1.80;;;-1.10;96.90;;;;;;5025574;28;20237;-85
2023/02/26 04:16:00;;;;;;;1.80;1.70;;;-1.00;96.70;;;;;;5017220;28;20205;-86
2023/02/26 04:18:27;;;;;;;1.93;1.73;;;-1.10;96.70;;;;;;5044367;28;20612;-86
2023/02/26 04:20:56;;;;;;;2.83;2.00;;;-1.10;96.50;;;;;;5049603;28;20236;-86
2023/02/26 04:23:24;;;;;;;6.33;1.97;;;-1.10;96.30;;;;;;5033207;28;20226;-85
2023/02/26 04:25:51;;;;;;;5.23;2.03;;;-1.10;96.10;;;;;;5036857;28;20216;-85
2023/02/26 04:28:18;;;;;;;3.77;2.00;;;-1.10;95.90;;;;;;5052892;28;20255;-85
2023/02/26 04:30:45;;;;;;;3.33;1.80;;;-1.10;95.40;;;;;;5052591;28;20198;-86
2023/02/26 04:33:14;;;;;;;2.70;2.00;;;-1.10;95.80;;;;;;5047647;28;20197;-85
2023/02/26 04:35:41;;;;;;;3.73;1.70;;;-1.00;95.60;;;;;;5047226;28;20585;-88
2023/02/26 04:38:09;;;;;;;3.33;2.07;;;-1.20;95.40;;;;;;5053053;28;20201;-87
2023/02/26 04:40:38;;;;;;;3.13;1.90;;;-1.20;95.60;;;;;;5057253;28;20221;-87
2023/02/26 04:43:05;;;;;;;2.83;1.80;;;-1.20;96.30;;;;;;5045503;28;20199;-86
2023/02/26 04:45:32;;;;;;;1.90;1.70;;;-1.30;96.00;;;;;;5048383;28;20210;-87
2023/02/26 04:47:59;;;;;;;4.27;1.80;;;-1.30;95.60;;;;;;5026156;28;20276;-87
2023/02/26 04:50:26;;;;;;;4.47;1.93;;;-1.40;95.60;;;;;;5050201;28;20212;-87
2023/02/26 04:52:53;;;;;;;3.90;2.00;;;-1.50;95.80;;;;;;5044991;28;20205;-87
2023/02/26 04:55:22;;;;;;;3.13;1.97;;;-1.50;95.90;;;;;;5029360;28;20202;-87
2023/02/26 04:57:49;;;;;;;2.90;1.97;;;-1.50;95.50;;;;;;5051867;28;20191;-87
2023/02/26 05:00:17;;;;;;;2.23;1.77;;;-1.60;95.60;;;;;;5048556;28;20221;-87
2023/02/26 05:02:44;;;;;;;3.93;1.97;;;-1.60;95.60;;;;;;5041881;28;20220;-88
2023/02/26 05:05:10;;;;;;;3.83;1.67;;;-1.70;95.70;;;;;;5030947;28;20688;-89
2023/02/26 05:07:38;;;;;;;4.40;1.90;;;-1.70;95.70;;;;;;5046700;28;20202;-88
2023/02/26 05:10:05;;;;;;;2.17;1.80;;;-1.80;95.70;;;;;;5040804;28;20194;-88
2023/02/26 05:12:34;;;;;;;4.33;1.93;;;-1.80;96.00;;;;;;5032417;28;20248;-88
2023/02/26 05:15:01;;;;;;;2.23;1.80;;;-1.80;96.30;;;;;;5048572;28;20202;-87
2023/02/26 05:17:28;;;;;;;2.80;1.97;;;-1.90;96.30;;;;;;5047855;28;20262;-87
2023/02/26 05:19:55;;;;;;;3.77;1.90;;;-1.90;96.20;;;;;;5049164;28;20230;-87
2023/02/26 05:22:22;;;;;;;4.03;1.93;;;-1.90;96.20;;;;;;5040862;28;20245;-86
2023/02/26 05:24:49;;;;;;;4.30;1.90;;;-2.00;96.20;;;;;;5048582;28;20206;-88
2023/02/26 05:27:16;;;;;;;4.20;1.97;;;-2.00;96.20;;;;;;5042018;28;20198;-89
2023/02/26 05:29:45;;;;;;;3.53;2.10;;;-2.00;95.90;;;;;;5045636;28;20686;-87
2023/02/26 05:32:12;;;;;;;3.40;1.90;;;-2.10;96.10;;;;;;5052047;28;20198;-87
2023/02/26 05:34:39;;;;;;;2.40;1.80;;;-2.10;96.20;;;;;;5028029;28;20260;-88
2023/02/26 05:37:06;;;;;;;2.40;2.00;;;-2.10;96.10;;;;;;5055156;28;20198;-87
2023/02/26 05:39:33;;;;;;;3.43;1.80;;;-2.10;95.70;;;;;;5030173;28;20241;-87
2023/02/26 05:42:00;;;;;;;2.77;1.97;;;-2.20;95.50;;;;;;5048729;28;20199;-87
2023/02/26 05:44:27;;;;;;;2.37;1.77;;;-2.20;95.80;;;;;;5051271;28;20210;-87
2023/02/26 05:46:55;;;;;;;2.63;2.03;;;-2.20;96.00;;;;;;5044686;28;20202;-89
2023/02/26 05:49:22;;;;;;;3.73;2.17;;;-2.20;96.00;;;;;;5050721;28;20201;-86
2023/02/26 05:51:49;;;;;;;3.17;1.90;;;-2.20;96.00;;;;;;5050157;28;20277;-87
2023/02/26 05:54:16;;;;;;;3.17;1.70;;;-2.30;96.00;;;;;;5033915;28;20256;-86
2023/02/26 05:56:42;;;;;;;4.93;2.10;;;-2.30;96.30;;;;;;5050173;28;20669;-86
2023/02/26 05:59:09;;;;;;;2.23;1.80;;;-2.40;96.10;;;;;;5052145;28;20194;-87
2023/02/26 06:01:37;;;;;;;3.17;1.80;;;-2.40;96.10;;;;;;5034413;28;20233;-86
2023/02/26 06:04:06;;;;;;;2.60;1.87;;;-2.40;96.40;;;;;;5032248;28;20237;-86
2023/02/26 06:06:33;;;;;;;5.83;2.60;;;-2.40;96.40;;;;;;5051473;28;20201;-87
2023/02/26 06:09:01;;;;;;;2.93;1.80;;;-2.50;96.60;;;;;;5048073;28;20209;-86
2023/02/26 06:11:28;;;;;;;3.50;1.90;;;-2.50;96.90;;;;;;5031328;28;20206;-86
2023/02/26 06:13:56;;;;;;;2.93;2.00;;;-2.30;96.40;;;;;;5052497;28;20209;-86
2023/02/26 06:16:24;;;;;;;6.93;2.30;;;-2.40;96.10;;;;;;5022284;28;20205;-88
2023/02/26 06:18:51;;;;;;;5.20;2.10;;;-2.30;96.50;;;;;;5024750;28;20206;-88
2023/02/26 06:21:19;;;;;;;3.77;2.00;;;-2.30;96.20;;;;;;5049799;28;20232;-88
2023/02/26 06:23:46;;;;;;;5.47;1.80;;;-2.30;96.20;;;;;;5045255;28;20205;-88
2023/02/26 06:26:13;;;;;;;4.67;1.80;;;-2.20;96.30;;;;;;5027136;28;20208;-89
2023/02/26 06:28:40;;;;;;;4.73;1.90;;;-2.00;96.30;;;;;;5051404;28;20194;-88
2023/02/26 06:31:07;;;;;;;4.50;1.87;;;-1.90;96.00;;;;;;5050016;28;20240;-88
2023/02/26 06:33:34;;;;;;;3.13;2.13;;;-1.80;95.90;;;;;;5028387;28;20197;-88
2023/02/26 06:36:01;;;;;;;3.83;1.90;;;-1.60;95.30;;;;;;5042237;28;20200;-88
2023/02/26 06:38:29;;;;;;;5.00;2.00;;;-1.60;95.00;;;;;;5031797;28;20237;-88
2023/02/26 06:40:56;;;;;;;3.33;1.90;;;-1.60;95.00;;;;;;5054423;28;20229;-88
2023/02/26 06:43:23;;;;;;;2.93;1.90;;;-1.60;94.20;;;;;;5032132;28;20564;-88
2023/02/26 06:45:51;;;;;;;3.67;1.63;;;-1.70;94.30;;;;;;5045003;28;20198;-88
2023/02/26 06:48:19;;;;;;;5.37;2.10;;;-1.70;94.40;;;;;;5045838;28;20239;-89
2023/02/26 06:50:46;;;;;;;3.90;1.80;;;-1.80;93.90;;;;;;5057232;28;20198;-87
2023/02/26 06:53:13;;;;;;;2.10;1.77;;;-1.50;94.30;;;;;;5050519;28;20217;-88
2023/02/26 06:55:48;;;;;;;5.43;1.83;;;-1.50;93.70;;;;;;5047259;28;20695;-88
2023/02/26 06:58:14;;;;;;;5.50;2.03;;;-1.60;93.70;;;;;;5029740;28;20197;-87
2023/02/26 07:00:41;;;;;;;2.97;1.80;;;-1.50;93.70;;;;;;5049989;28;20221;-88
2023/02/26 07:03:12;;;;;;;3.70;1.93;;;-1.50;93.70;;;;;;5052471;28;20198;-89
2023/02/26 07:05:39;;;;;;;4.63;1.87;;;-1.50;93.70;;;;;;5010084;28;20265;-89
2023/02/26 07:08:06;;;;;;;4.23;2.20;;;-1.50;93.70;;;;;;5056850;28;20194;-89
2023/02/26 07:10:33;;;;;;;6.70;2.10;;;-1.50;93.70;;;;;;5067814;28;20196;-90
2023/02/26 07:15:47;;;;;;;6.00;2.00;;;-1.50;94.00;;;;;;5030005;28;20206;-89
2023/02/26 07:21:18;;;;;;;3.77;2.10;;;-1.30;93.70;;;;;;5044720;28;20236;-88
2023/02/26 07:23:45;;;;;;;3.90;2.27;;;-1.30;93.30;;;;;;5035707;28;20202;-88
2023/02/26 07:26:12;;;;;;;3.60;1.77;;;-1.20;93.80;;;;;;5037181;28;20226;-85
2023/02/26 07:28:41;;;;;;;5.73;2.40;;;-1.10;93.80;;;;;;5054228;28;20569;-87
2023/02/26 07:31:08;;;;;;;3.13;2.30;;;-0.90;92.90;;;;;;5052105;28;20206;-86
2023/02/26 07:33:34;;;;;;;3.17;1.80;;;-0.90;92.20;;;;;;5046875;28;20194;-86
2023/02/26 07:36:02;;;;;;;4.17;2.30;;;-0.80;92.40;;;;;;5053505;28;20755;-89
2023/02/26 07:38:29;;;;;;;4.07;2.00;;;-0.90;92.10;;;;;;5051017;28;20213;-87
2023/02/26 07:40:56;;;;;;;4.03;2.20;;;-0.80;92.50;;;;;;5033712;28;20218;-87
2023/02/26 07:43:27;;;;;;;4.00;2.10;;;-0.80;91.40;;;;;;5048906;28;20202;-87
2023/02/26 07:45:55;;;;;;;3.77;2.30;;;-0.80;92.30;;;;;;5035384;28;20199;-86
2023/02/26 07:48:22;;;;;;;4.23;2.23;;;-0.60;92.10;;;;;;5053003;28;20243;-85
2023/02/26 07:50:51;;;;;;;3.37;2.07;;;-0.50;91.20;;;;;;5054277;28;20206;-86
2023/02/26 07:53:18;;;;;;;3.30;2.00;;;-0.50;91.20;;;;;;5059681;28;20198;-86
2023/02/26 07:55:45;;;;;;;4.70;1.97;;;-0.40;90.90;;;;;;5033230;28;20244;-87
2023/02/26 07:58:12;;;;;;;3.00;2.03;;;-0.30;90.70;;;;;;5043498;28;20190;-85
2023/02/26 08:00:39;;;;;;;4.30;2.07;;;-0.30;90.20;;;;;;5027089;28;21388;-86
2023/02/26 08:03:08;;;;;;;2.57;1.97;;;-0.60;91.10;;;;;;5051999;28;20205;-85
2023/02/26 08:05:35;;;;;;;5.90;2.20;;;-0.80;91.20;;;;;;5025771;28;20647;-86
2023/02/26 08:08:02;;;;;;;3.13;2.20;;;-0.90;92.40;;;;;;5048980;28;20200;-84
2023/02/26 08:10:29;;;;;;;2.90;2.07;;;-0.80;91.90;;;;;;5049182;28;20212;-83
2023/02/26 08:12:56;;;;;;;4.10;2.57;;;-0.80;92.10;;;;;;5049393;28;20925;-84
2023/02/26 08:15:23;;;;;;;3.47;2.40;;;-0.70;92.70;;;;;;5051877;28;20198;-84
2023/02/26 08:17:52;;;;;;;3.63;2.20;;;-0.50;92.00;;;;;;5045090;28;20583;-83
2023/02/26 08:20:21;;;;;;;3.90;1.97;;;-0.40;91.90;;;;;;5044167;28;20222;-84
2023/02/26 08:22:48;;;;;;;5.93;2.20;;;-0.40;91.30;;;;;;5043483;28;20214;-84
2023/02/26 08:25:15;;;;;;;2.87;2.07;;;-0.40;91.60;;;;;;5053040;28;20210;-85
2023/02/26 08:27:42;;;;;;;2.43;2.23;;;-0.40;90.80;;;;;;5047818;28;20213;-83
2023/02/26 08:30:11;;;;;;;5.00;2.37;;;-0.50;91.10;;;;;;5030838;28;20593;-82
2023/02/26 08:32:41;;;;;;;2.40;2.10;;;-0.60;90.90;;;;;;5052247;28;20194;-80
2023/02/26 08:35:08;;;;;;;3.23;2.00;;;-0.40;91.40;;;;;;5050024;28;20201;-80
2023/02/26 08:37:37;;;;;;;5.30;2.10;;;-0.40;91.60;;;;;;5030921;28;20202;-82
2023/02/26 08:40:05;;;;;;;2.50;2.30;;;-0.20;91.10;;;;;;5055786;28;20692;-82
2023/02/26 08:42:32;;;;;;;4.90;2.20;;;-0.20;90.80;;;;;;5050867;28;20645;-82
2023/02/26 08:44:59;;;;;;;2.40;2.20;;;-0.10;90.70;;;;;;5013708;28;20561;-79
2023/02/26 08:47:26;;;;;;;2.10;1.87;;;0.20;90.10;;;;;;5041147;28;20214;-77
2023/02/26 08:49:53;;;;;;;3.83;2.40;;;0.10;88.70;;;;;;5029059;28;20199;-87
2023/02/26 08:52:20;;;;;;;2.77;2.17;;;0.00;90.00;;;;;;5044216;28;20206;-82
2023/02/26 08:54:48;;;;;;;3.03;2.03;;;0.10;89.70;;;;;;5045413;28;20209;-81
2023/02/26 08:57:15;;;;;;;2.93;2.33;;;0.10;89.80;;;;;;5026970;28;20660;-82
2023/02/26 08:59:42;;;;;;;3.70;2.57;;;0.10;89.80;;;;;;5043275;28;20202;-82
2023/02/26 09:02:11;;;;;;;2.50;2.30;;;0.00;89.40;;;;;;5042691;28;20221;-82
2023/02/26 09:04:38;;;;;;;3.07;2.40;;;-0.10;90.30;;;;;;5042222;28;20221;-84
2023/02/26 09:07:05;;;;;;;3.17;2.70;;;-0.10;90.70;;;;;;5009480;28;20256;-85
2023/02/26 09:09:32;;;;;;;2.80;2.37;;;-0.20;90.80;;;;;;5027136;28;20210;-86
2023/02/26 09:12:00;;;;;;;3.17;2.30;;;-0.20;90.80;;;;;;5039412;28;21542;-85
2023/02/26 09:14:27;;;;;;;3.43;2.30;;;-0.20;90.80;;;;;;5039572;28;20912;-84
2023/02/26 09:16:55;;;;;;;3.10;2.50;;;-0.20;90.80;;;;;;5040927;28;20211;-85
2023/02/26 09:19:23;;;;;;;2.87;2.33;;;-0.20;90.90;;;;;;5026609;28;20196;-83
2023/02/26 09:21:49;;;;;;;3.13;2.40;;;-0.20;90.30;;;;;;5041499;28;20316;-84
2023/02/26 09:24:16;;;;;;;2.73;2.40;;;-0.20;90.90;;;;;;5037720;28;20678;-85
2023/02/26 09:26:43;;;;;;;3.43;2.33;;;-0.10;90.90;;;;;;5028080;28;20554;-83
2023/02/26 09:29:13;;;;;;;4.30;2.50;;;-0.20;90.80;;;;;;5042631;28;20727;-84
2023/02/26 09:31:40;;;;;;;3.23;2.43;;;-0.10;90.60;;;;;;5017632;28;20229;-85
2023/02/26 09:34:07;;;;;;;3.37;2.40;;;-0.10;90.50;;;;;;5021760;28;20773;-84
2023/02/26 09:36:34;;;;;;;3.40;2.37;;;-0.20;90.90;;;;;;5051986;28;20198;-82
2023/02/26 09:39:01;;;;;;;3.53;2.50;;;-0.10;91.50;;;;;;5046007;28;20206;-85
2023/02/26 09:41:32;;;;;;;3.30;2.30;;;0.20;91.40;;;;;;5046936;28;20222;-84
2023/02/26 09:44:19;;;;;;;3.57;2.23;;;0.50;89.60;;;;;;5050524;28;20194;-82
2023/02/26 09:47:00;;;;;;;2.77;2.20;;;0.90;86.40;;;;;;5050239;28;20254;-85
2023/02/26 09:49:34;;;;;;;2.73;2.20;;;1.20;86.20;;;;;;5047486;28;20276;-86
2023/02/26 09:52:08;;;;;;;3.23;2.43;;;1.20;86.60;;;;;;5043120;28;20642;-89
2023/02/26 09:54:43;;;;;;;2.60;2.40;;;1.30;86.70;;;;;;5048104;28;20540;-90
2023/02/26 09:57:12;;;;;;;3.60;2.60;;;1.40;84.30;;;;;;5042925;28;20280;-89
2023/02/26 09:59:41;;;;;;;2.77;2.20;;;1.30;84.00;;;;;;5053215;28;20206;-90
2023/02/26 10:02:16;;;;;;;2.60;2.40;;;1.30;83.10;;;;;;5040103;28;20594;-90
2023/02/26 10:04:50;;;;;;;4.00;3.03;;;1.20;85.90;;;;;;5041144;28;20200;-91
2023/02/26 10:07:28;;;;;;;3.10;2.57;;;1.20;85.10;;;;;;5043517;28;20591;-88
2023/02/26 10:10:05;;;;;;;4.67;2.93;;;0.90;86.40;;;;;;5014076;28;20294;-86
2023/02/26 10:12:37;;;;;;;4.13;2.80;;;0.70;90.10;;;;;;5030843;28;20204;-85
2023/02/26 10:15:12;;;;;;;4.13;2.83;;;0.60;90.40;;;;;;5053838;28;20202;-86
2023/02/26 10:17:44;;;;;;;4.63;2.77;;;0.60;90.40;;;;;;5055092;28;20719;-83
2023/02/26 10:20:18;;;;;;;3.37;2.27;;;0.50;90.20;;;;;;5050005;28;20205;-83
2023/02/26 10:22:53;;;;;;;3.43;2.80;;;0.50;90.30;;;;;;5048100;28;20232;-84
2023/02/26 10:25:22;;;;;;;3.23;2.63;;;0.50;90.80;;;;;;5040901;28;20210;-84
2023/02/26 10:27:58;;;;;;;4.67;2.70;;;0.70;90.90;;;;;;5042733;28;20197;-84
2023/02/26 10:30:35;;;;;;;4.30;2.70;;;0.70;90.40;;;;;;5006881;28;20206;-84
2023/02/26 10:33:11;;;;;;;3.93;2.67;;;1.00;90.60;;;;;;5041196;28;20201;-84
2023/02/26 10:35:45;;;;;;;3.10;2.30;;;1.00;90.10;;;;;;5053064;28;20197;-86
2023/02/26 10:38:16;;;;;;;2.70;2.50;;;1.10;86.80;;;;;;5042858;28;20194;-86
2023/02/26 10:40:49;;;;;;;3.50;2.80;;;1.50;89.30;;;;;;5026946;28;20205;-90
2023/02/26 10:43:21;;;;;;;3.83;2.80;;;1.90;87.00;;;;;;5047747;28;20275;-86
2023/02/26 10:46:01;;;;;;;2.57;2.37;;;1.80;87.00;;;;;;5040256;28;20647;-86
2023/02/26 10:48:42;;;;;;;3.73;2.60;;;1.80;85.00;;;;;;5045751;28;20201;-85
2023/02/26 10:51:13;;;;;;;4.00;3.20;;;1.80;86.90;;;;;;5051019;28;20208;-86
2023/02/26 10:53:43;;;;;;;2.83;2.60;;;1.60;87.10;;;;;;5042925;28;20190;-86
2023/02/26 10:56:15;;;;;;;3.50;2.60;;;1.50;86.80;;;;;;5049859;28;20186;-87
2023/02/26 10:58:43;;;;;;;2.60;2.40;;;1.50;86.80;;;;;;5054772;28;20675;-85
2023/02/26 11:01:16;;;;;;;3.10;2.43;;;1.40;86.70;;;;;;5057217;28;20225;-85
2023/02/26 11:03:46;;;;;;;2.40;2.20;;;1.50;86.80;;;;;;5047267;28;20190;-86
2023/02/26 11:06:18;;;;;;;3.93;2.57;;;1.40;86.70;;;;;;5053092;28;20200;-86
2023/02/26 11:08:49;;;;;;;2.60;2.40;;;1.70;86.50;;;;;;5014721;28;20280;-85
2023/02/26 11:11:40;;;;;;;3.77;2.63;;;1.80;83.70;;;;;;5040523;28;20209;-87
2023/02/26 11:14:08;;;;;;;3.07;2.50;;;2.10;83.10;;;;;;5053064;28;20194;-86
2023/02/26 11:16:42;;;;;;;3.30;2.70;;;2.30;80.90;;;;;;5039166;28;20198;-85
2023/02/26 11:19:09;;;;;;;3.57;2.30;;;2.20;80.10;;;;;;5042338;28;20645;-85
2023/02/26 11:21:40;;;;;;;2.47;2.27;;;2.10;78.70;;;;;;5046747;28;20237;-87
2023/02/26 11:24:11;;;;;;;3.03;2.73;;;1.90;81.10;;;;;;5054017;28;20206;-86
2023/02/26 11:26:42;;;;;;;2.57;2.20;;;2.10;82.10;;;;;;5041440;28;20213;-89
2023/02/26 11:29:15;;;;;;;2.50;2.30;;;2.40;76.60;;;;;;5050499;28;20197;-86
2023/02/26 11:31:43;;;;;;;2.73;2.53;;;2.80;72.70;;;;;;5053345;28;20201;-86
2023/02/26 11:34:12;;;;;;;2.70;2.50;;;2.80;72.00;;;;;;5045255;28;20205;-89
2023/02/26 11:36:41;;;;;;;3.90;2.77;;;2.90;73.80;;;;;;5042297;28;20203;-86
2023/02/26 11:39:14;;;;;;;2.97;2.67;;;3.10;72.20;;;;;;5042213;28;20201;-84
2023/02/26 11:41:42;;;;;;;3.80;3.10;;;2.90;72.90;;;;;;5051669;28;20220;-85
2023/02/26 11:44:13;;;;;;;3.40;3.10;;;2.40;82.20;;;;;;5049302;28;20201;-85
2023/02/26 11:46:45;;;;;;;2.80;2.60;;;1.90;87.00;;;;;;5049707;28;20194;-85
2023/02/26 11:49:14;;;;;;;4.93;2.77;;;1.80;91.10;;;;;;5038656;28;20202;-86
2023/02/26 11:51:45;;;;;;;3.43;3.13;;;1.50;91.70;;;;;;5046248;28;20202;-85
2023/02/26 11:54:21;;;;;;;3.50;3.00;;;1.30;92.30;;;;;;5040123;28;20210;-86
2023/02/26 11:56:48;;;;;;;3.67;2.67;;;1.20;93.60;;;;;;5047497;28;20201;-88
2023/02/26 11:59:20;;;;;;;2.73;2.53;;;1.30;93.40;;;;;;5049726;28;20201;-86
2023/02/26 12:01:50;;;;;;;2.97;2.77;;;1.50;93.30;;;;;;5052998;28;20217;-84
2023/02/26 12:04:20;;;;;;;4.47;3.10;;;2.20;92.10;;;;;;5037759;28;20199;-84
2023/02/26 12:06:50;;;;;;;2.80;2.50;;;2.70;90.50;;;;;;5046445;28;20562;-87
2023/02/26 12:09:18;;;;;;;3.80;2.40;;;2.70;88.30;;;;;;5047470;28;20253;-88
2023/02/26 12:12:11;;;;;;;2.70;2.50;;;2.60;90.70;;;;;;5053693;28;20198;-89
2023/02/26 12:15:03;;;;;;;3.60;2.27;;;2.20;91.00;;;;;;5049380;28;20220;-87
2023/02/26 12:17:48;;;;;;;2.90;2.27;;;2.00;90.50;;;;;;5058705;28;20202;-90
2023/02/26 12:20:20;;;;;;;3.30;2.13;;;1.80;91.40;;;;;;5046707;28;20689;-89
2023/02/26 12:23:02;;;;;;;2.50;2.30;;;1.60;90.90;;;;;;5051035;28;20229;-87
2023/02/26 12:25:51;;;;;;;2.07;1.97;;;1.60;90.70;;;;;;5051185;28;20202;-86
2023/02/26 12:28:50;;;;;;;2.30;2.10;;;1.80;89.80;;;;;;5047646;28;20190;-87
2023/02/26 12:31:36;;;;;;;2.53;2.33;;;2.10;87.20;;;;;;5029968;28;20244;-87
2023/02/26 12:34:19;;;;;;;2.93;2.20;;;2.40;86.30;;;;;;5028894;28;20250;-86
2023/02/26 12:37:04;;;;;;;2.43;2.23;;;2.70;83.20;;;;;;5054581;28;20197;-87
2023/02/26 12:39:42;;;;;;;3.30;2.30;;;3.00;79.20;;;;;;5053738;28;20194;-90
2023/02/26 12:42:18;;;;;;;3.57;2.10;;;3.10;79.70;;;;;;5055148;28;20213;-89
2023/02/26 12:45:06;;;;;;;2.60;2.40;;;3.30;75.60;;;;;;5055513;28;20668;-90
2023/02/26 12:47:44;;;;;;;4.13;2.40;;;3.20;67.90;;;;;;5058239;28;20194;-90
2023/02/26 12:50:37;;;;;;;2.40;2.20;;;2.80;76.20;;;;;;5055382;28;20668;-88
2023/02/26 12:53:31;;;;;;;2.13;2.00;;;2.70;73.50;;;;;;5053444;28;20195;-88
2023/02/26 12:56:11;;;;;;;2.20;2.00;;;3.00;68.70;;;;;;5042428;28;20202;-85
2023/02/26 12:59:11;;;;;;;1.97;1.80;;;3.20;58.10;;;;;;5049250;28;20248;-86
2023/02/26 13:02:06;;;;;;;2.20;2.00;;;3.20;56.20;;;;;;5033799;28;20632;-85
2023/02/26 13:05:16;;;;;;;3.73;3.23;;;3.10;58.60;;;;;;5043674;28;20205;-85
2023/02/26 13:07:59;;;;;;;2.40;2.20;;;3.00;63.10;;;;;;5050514;28;20208;-85
2023/02/26 13:10:33;;;;;;;2.00;1.90;;;3.30;64.50;;;;;;5053126;28;20205;-86
2023/02/26 13:13:17;;;;;;;3.50;2.20;;;3.70;58.60;;;;;;5028175;28;20217;-86
2023/02/26 13:16:03;;;;;;;2.37;2.17;;;3.90;53.70;;;;;;5030224;28;20757;-86